Kaneohe, HI

10:35 PM HST am 22. Oktober 2014 (GMT -1000)
Kaneohe Bay Dr | Change Station
CLOSE
Current Station
Persönliche Wetterstationen
Location: Kaneohe, HI
Höhe: 78 ft
Wetterstationen in der Umgebung

Höhe 78 ft 21.41 °N, 157.77 °W | Updated 20 seconds ago

Mostly Cloudy
Wolkig
75.6 °F
gefühlte 75 °F
N
0.0
Wind Wechselnd Wind aus West-Nordwest
Gusts 0.0 mph

Heute
Max. -- | schwach -- °F
--% Regenrisiko
Gestern
Max. -- | schwach -- °F
Precip. -- inch
6:29 AM 6:01 PM
Letztes Viertel, 0% visible
Druck 30.02 inch
Sichtweite 10.0 Meilen
Wolken Few 1700 ft
Wolkig 6000 ft
Hitzeindex 75 °F
Taupunkt 74 °F
Feuchtigkeit 94%
Regen 0.51 inch
Schneehöhe Nicht verfügbar..
UV 0 von 12
Pollen Nicht verfügbar..
Luftqualität Nicht verfügbar..
Flu Activity Nicht verfügbar..
METAR PHNG 230757Z 10003KT 10SM FEW017 BKN060 25/23 A3003 RMK AO2 RAE10 SLP165 P0000 T02500228 $

More Conditions Fewer Conditions

Druck 30.02 inch
Sichtweite 10.0 Meilen
Wolken Few 1700 ft
Wolkig 6000 ft
Hitzeindex 75 °F
Taupunkt 74 °F
Feuchtigkeit 94%
Regen 0.51 inch
Schneehöhe Nicht verfügbar..
UV 0 von 12
Pollen Nicht verfügbar..
Luftqualität Nicht verfügbar..
Flu Activity Nicht verfügbar..
METAR PHNG 230757Z 10003KT 10SM FEW017 BKN060 25/23 A3003 RMK AO2 RAE10 SLP165 P0000 T02500228 $

More Conditions Fewer Conditions

10-Day Weather Forecast

Almanac

Astronomie

Oct. 22, 2014 Aufgang Untergang
Genaue Zeit 06:29 HST 18:01 HST
Bürgerliche Dämmerung 06:07 HST 18:23 HST
Nautische Dämmerung 05:41 HST 18:49 HST
Astronomische Dämmerung 05:15 HST 19:15 HST
Mond 05:30 HST (10/22) 17:29 HST (10/22)
Länge des sichtbaren Lichts 12h 16m
Tageslänge
11h 31m
Tomorrow will be 1m 9s shorter.
Letztes Viertel, 0% of the Moon is Illuminated
Okt 23
Letztes Viertel
Okt 23
Neu
Okt 30
Erstes Viertel
Nov 6
Vollmond
Nov 14
Letztes Viertel

Gestrige Extrema

State Highs State Lows

Community

WunderPhotos

Upload Photos

1,764,197 Fotos hochgeladen!

Nearby

Schneehöhe

Station Depth Höhe
Kein Neuschnee gemeldet.

Erdbebenaktivität

Stadt Distance Mag. Time & Date
No recent earthquake activity has been reported nearby.
Minimum magnitude displayed is 2.5.

küstennahe Wassertemperaturen

Ort Temperatur
Kein Stationsbericht

Wetterstationen in der Umgebung